sensor_id;sensor_type;location;lat;lon;timestamp;pressure;altitude;pressure_sealevel;temperature;humidity
75991;BME280;64673;52.276;10.560;2023-04-08T00:01:12;101377.56;;;5.72;84.52
75991;BME280;64673;52.276;10.560;2023-04-08T00:03:37;101379.50;;;5.83;83.37
75991;BME280;64673;52.276;10.560;2023-04-08T00:06:03;101372.78;;;5.74;85.17
75991;BME280;64673;52.276;10.560;2023-04-08T00:08:28;101379.97;;;5.73;84.40
75991;BME280;64673;52.276;10.560;2023-04-08T00:10:54;101375.81;;;5.52;86.43
75991;BME280;64673;52.276;10.560;2023-04-08T00:13:20;101375.41;;;5.80;84.35
75991;BME280;64673;52.276;10.560;2023-04-08T00:15:45;101374.75;;;5.60;86.35
75991;BME280;64673;52.276;10.560;2023-04-08T00:18:13;101374.34;;;5.57;86.81
75991;BME280;64673;52.276;10.560;2023-04-08T00:20:39;101376.88;;;5.76;83.79
75991;BME280;64673;52.276;10.560;2023-04-08T00:23:05;101376.34;;;5.68;86.01
75991;BME280;64673;52.276;10.560;2023-04-08T00:25:30;101380.78;;;5.80;84.30
75991;BME280;64673;52.276;10.560;2023-04-08T00:27:55;101387.66;;;5.95;85.56
75991;BME280;64673;52.276;10.560;2023-04-08T00:30:21;101377.56;;;5.65;86.72
75991;BME280;64673;52.276;10.560;2023-04-08T00:32:46;101383.13;;;5.70;86.51
75991;BME280;64673;52.276;10.560;2023-04-08T00:35:11;101376.59;;;5.84;84.46
75991;BME280;64673;52.276;10.560;2023-04-08T00:37:37;101382.78;;;5.60;87.41
75991;BME280;64673;52.276;10.560;2023-04-08T00:40:03;101384.28;;;5.74;86.31
75991;BME280;64673;52.276;10.560;2023-04-08T00:42:29;101385.09;;;5.81;85.26
75991;BME280;64673;52.276;10.560;2023-04-08T00:44:55;101383.34;;;5.62;86.18
75991;BME280;64673;52.276;10.560;2023-04-08T00:47:21;101387.91;;;5.86;85.35
75991;BME280;64673;52.276;10.560;2023-04-08T00:49:46;101380.38;;;5.77;85.75
75991;BME280;64673;52.276;10.560;2023-04-08T00:52:12;101374.41;;;5.50;88.43
75991;BME280;64673;52.276;10.560;2023-04-08T00:54:37;101362.81;;;5.56;88.27
75991;BME280;64673;52.276;10.560;2023-04-08T00:57:04;101349.31;;;5.44;88.45
75991;BME280;64673;52.276;10.560;2023-04-08T00:59:30;101357.88;;;5.28;89.80
75991;BME280;64673;52.276;10.560;2023-04-08T01:04:38;101349.66;;;5.23;89.76
75991;BME280;64673;52.276;10.560;2023-04-08T01:07:17;101348.88;;;5.16;90.34
75991;BME280;64673;52.276;10.560;2023-04-08T01:09:47;101351.22;;;5.37;88.10
75991;BME280;64673;52.276;10.560;2023-04-08T01:12:27;101348.84;;;5.54;87.56
75991;BME280;64673;52.276;10.560;2023-04-08T01:15:04;101353.94;;;5.31;89.68
75991;BME280;64673;52.276;10.560;2023-04-08T01:17:31;101361.41;;;5.53;86.79
75991;BME280;64673;52.276;10.560;2023-04-08T01:19:58;101361.59;;;5.52;88.92
75991;BME280;64673;52.276;10.560;2023-04-08T01:22:36;101369.97;;;5.62;87.96
75991;BME280;64673;52.276;10.560;2023-04-08T01:25:09;101361.50;;;5.72;85.44
75991;BME280;64673;52.276;10.560;2023-04-08T01:27:37;101357.81;;;5.66;86.07
75991;BME280;64673;52.276;10.560;2023-04-08T01:30:04;101349.25;;;5.51;86.81
75991;BME280;64673;52.276;10.560;2023-04-08T01:32:49;101353.00;;;5.50;88.57
75991;BME280;64673;52.276;10.560;2023-04-08T01:35:16;101355.13;;;5.66;86.30
75991;BME280;64673;52.276;10.560;2023-04-08T01:37:43;101352.59;;;5.46;88.21
75991;BME280;64673;52.276;10.560;2023-04-08T01:40:10;101358.28;;;5.57;86.43
75991;BME280;64673;52.276;10.560;2023-04-08T01:42:36;101364.81;;;5.67;86.79
75991;BME280;64673;52.276;10.560;2023-04-08T01:45:02;101361.72;;;5.64;86.77
75991;BME280;64673;52.276;10.560;2023-04-08T01:47:28;101353.84;;;5.44;88.43
75991;BME280;64673;52.276;10.560;2023-04-08T01:49:55;101357.63;;;5.36;88.70
75991;BME280;64673;52.276;10.560;2023-04-08T01:52:22;101353.34;;;5.60;86.86
75991;BME280;64673;52.276;10.560;2023-04-08T01:54:49;101355.91;;;5.42;87.24
75991;BME280;64673;52.276;10.560;2023-04-08T01:57:18;101357.19;;;5.64;86.50
75991;BME280;64673;52.276;10.560;2023-04-08T01:59:49;101367.69;;;5.66;86.47
75991;BME280;64673;52.276;10.560;2023-04-08T02:02:17;101365.31;;;5.51;86.99
75991;BME280;64673;52.276;10.560;2023-04-08T02:04:44;101356.59;;;5.62;87.60
75991;BME280;64673;52.276;10.560;2023-04-08T02:07:10;101354.59;;;5.58;85.99
75991;BME280;64673;52.276;10.560;2023-04-08T02:09:35;101362.44;;;5.52;90.22
75991;BME280;64673;52.276;10.560;2023-04-08T02:12:01;101368.72;;;5.65;87.60
75991;BME280;64673;52.276;10.560;2023-04-08T02:14:27;101358.50;;;5.55;89.05
75991;BME280;64673;52.276;10.560;2023-04-08T02:16:55;101362.69;;;5.44;90.61
75991;BME280;64673;52.276;10.560;2023-04-08T02:19:35;101368.25;;;5.74;85.74
75991;BME280;64673;52.276;10.560;2023-04-08T02:22:09;101375.31;;;5.62;87.49
75991;BME280;64673;52.276;10.560;2023-04-08T02:24:37;101374.25;;;5.70;87.36
75991;BME280;64673;52.276;10.560;2023-04-08T02:27:03;101368.41;;;5.79;87.01
75991;BME280;64673;52.276;10.560;2023-04-08T02:29:30;101361.03;;;5.50;89.97
75991;BME280;64673;52.276;10.560;2023-04-08T02:31:56;101377.09;;;5.50;89.63
75991;BME280;64673;52.276;10.560;2023-04-08T02:34:25;101378.47;;;5.52;89.52
75991;BME280;64673;52.276;10.560;2023-04-08T02:36:51;101372.66;;;5.62;86.89
75991;BME280;64673;52.276;10.560;2023-04-08T02:39:16;101379.03;;;5.30;90.74
75991;BME280;64673;52.276;10.560;2023-04-08T02:41:42;101376.47;;;5.48;89.15
75991;BME280;64673;52.276;10.560;2023-04-08T02:44:08;101372.66;;;5.62;87.80
75991;BME280;64673;52.276;10.560;2023-04-08T02:46:34;101383.47;;;5.49;88.48
75991;BME280;64673;52.276;10.560;2023-04-08T02:48:59;101386.97;;;5.49;88.63
75991;BME280;64673;52.276;10.560;2023-04-08T02:51:24;101383.97;;;5.64;88.54
75991;BME280;64673;52.276;10.560;2023-04-08T02:53:50;101382.59;;;5.55;87.93
75991;BME280;64673;52.276;10.560;2023-04-08T02:56:15;101385.06;;;5.57;88.12
75991;BME280;64673;52.276;10.560;2023-04-08T02:58:41;101385.09;;;5.50;88.59
75991;BME280;64673;52.276;10.560;2023-04-08T03:01:07;101386.97;;;5.49;90.22
75991;BME280;64673;52.276;10.560;2023-04-08T03:03:33;101382.19;;;5.51;88.25
75991;BME280;64673;52.276;10.560;2023-04-08T03:05:58;101389.09;;;5.66;87.08
75991;BME280;64673;52.276;10.560;2023-04-08T03:08:23;101385.19;;;5.68;87.90
75991;BME280;64673;52.276;10.560;2023-04-08T03:10:50;101384.44;;;5.55;88.42
75991;BME280;64673;52.276;10.560;2023-04-08T03:13:15;101385.09;;;5.50;89.06
75991;BME280;64673;52.276;10.560;2023-04-08T03:15:41;101389.41;;;5.51;88.29
75991;BME280;64673;52.276;10.560;2023-04-08T03:18:06;101385.13;;;5.43;89.84
75991;BME280;64673;52.276;10.560;2023-04-08T03:20:32;101390.47;;;5.50;88.60
75991;BME280;64673;52.276;10.560;2023-04-08T03:22:57;101395.47;;;5.40;89.57
75991;BME280;64673;52.276;10.560;2023-04-08T03:25:22;101391.28;;;5.50;88.67
75991;BME280;64673;52.276;10.560;2023-04-08T03:27:48;101394.41;;;5.41;89.65
75991;BME280;64673;52.276;10.560;2023-04-08T03:30:13;101391.72;;;5.41;90.00
75991;BME280;64673;52.276;10.560;2023-04-08T03:32:38;101390.88;;;5.47;89.57
75991;BME280;64673;52.276;10.560;2023-04-08T03:35:05;101382.81;;;5.53;90.14
75991;BME280;64673;52.276;10.560;2023-04-08T03:37:30;101391.16;;;5.70;88.00
75991;BME280;64673;52.276;10.560;2023-04-08T03:39:56;101394.84;;;5.69;87.02
75991;BME280;64673;52.276;10.560;2023-04-08T03:42:21;101401.31;;;5.86;85.25
75991;BME280;64673;52.276;10.560;2023-04-08T03:44:47;101394.84;;;5.69;87.26
75991;BME280;64673;52.276;10.560;2023-04-08T03:47:12;101394.31;;;5.61;89.64
75991;BME280;64673;52.276;10.560;2023-04-08T03:49:37;101390.81;;;5.53;89.50
75991;BME280;64673;52.276;10.560;2023-04-08T03:52:03;101394.53;;;5.52;88.41
75991;BME280;64673;52.276;10.560;2023-04-08T03:54:28;101398.69;;;5.48;90.03
75991;BME280;64673;52.276;10.560;2023-04-08T03:56:53;101396.53;;;5.64;88.00
75991;BME280;64673;52.276;10.560;2023-04-08T03:59:19;101396.38;;;5.59;88.15
75991;BME280;64673;52.276;10.560;2023-04-08T04:01:44;101391.34;;;5.69;87.35
75991;BME280;64673;52.276;10.560;2023-04-08T04:04:10;101404.13;;;5.67;87.91
75991;BME280;64673;52.276;10.560;2023-04-08T04:06:35;101399.25;;;5.57;88.61
75991;BME280;64673;52.276;10.560;2023-04-08T04:09:01;101412.63;;;5.57;88.02
75991;BME280;64673;52.276;10.560;2023-04-08T04:11:27;101404.00;;;5.55;86.65
75991;BME280;64673;52.276;10.560;2023-04-08T04:13:52;101413.09;;;5.47;89.47
75991;BME280;64673;52.276;10.560;2023-04-08T04:16:17;101407.78;;;5.41;89.09
75991;BME280;64673;52.276;10.560;2023-04-08T04:18:43;101416.31;;;5.25;91.23
75991;BME280;64673;52.276;10.560;2023-04-08T04:21:08;101417.44;;;5.42;88.74
75991;BME280;64673;52.276;10.560;2023-04-08T04:23:34;101413.31;;;5.46;88.43
75991;BME280;64673;52.276;10.560;2023-04-08T04:25:59;101419.75;;;5.38;89.41
75991;BME280;64673;52.276;10.560;2023-04-08T04:28:24;101423.13;;;5.59;87.46
75991;BME280;64673;52.276;10.560;2023-04-08T04:30:50;101423.34;;;5.57;89.46
75991;BME280;64673;52.276;10.560;2023-04-08T04:33:15;101432.09;;;5.33;91.39
75991;BME280;64673;52.276;10.560;2023-04-08T04:35:40;101433.69;;;5.40;91.86
75991;BME280;64673;52.276;10.560;2023-04-08T04:38:06;101432.97;;;5.27;91.60
75991;BME280;64673;52.276;10.560;2023-04-08T04:40:36;101437.41;;;5.46;89.31
75991;BME280;64673;52.276;10.560;2023-04-08T04:43:01;101443.34;;;5.48;90.13
75991;BME280;64673;52.276;10.560;2023-04-08T04:45:27;101440.75;;;5.35;91.01
75991;BME280;64673;52.276;10.560;2023-04-08T04:47:52;101445.16;;;5.54;89.40
75991;BME280;64673;52.276;10.560;2023-04-08T04:50:17;101442.22;;;5.62;88.39
75991;BME280;64673;52.276;10.560;2023-04-08T04:52:42;101446.50;;;5.32;92.11
75991;BME280;64673;52.276;10.560;2023-04-08T04:55:08;101447.69;;;5.49;90.18
75991;BME280;64673;52.276;10.560;2023-04-08T04:57:33;101450.44;;;5.67;89.16
75991;BME280;64673;52.276;10.560;2023-04-08T04:59:59;101452.84;;;5.75;87.18
75991;BME280;64673;52.276;10.560;2023-04-08T05:02:24;101453.28;;;5.72;88.17
75991;BME280;64673;52.276;10.560;2023-04-08T05:04:50;101456.22;;;5.64;88.49
75991;BME280;64673;52.276;10.560;2023-04-08T05:07:17;101455.91;;;5.47;90.68
75991;BME280;64673;52.276;10.560;2023-04-08T05:09:43;101454.63;;;5.57;89.82
75991;BME280;64673;52.276;10.560;2023-04-08T05:12:08;101456.38;;;5.38;91.42
75991;BME280;64673;52.276;10.560;2023-04-08T05:14:33;101463.00;;;5.29;92.45
75991;BME280;64673;52.276;10.560;2023-04-08T05:16:59;101459.75;;;5.58;89.32
75991;BME280;64673;52.276;10.560;2023-04-08T05:19:24;101464.44;;;5.69;89.11
75991;BME280;64673;52.276;10.560;2023-04-08T05:21:50;101465.81;;;5.40;92.32
75991;BME280;64673;52.276;10.560;2023-04-08T05:24:15;101463.81;;;5.29;93.09
75991;BME280;64673;52.276;10.560;2023-04-08T05:26:41;101464.75;;;5.48;90.38
75991;BME280;64673;52.276;10.560;2023-04-08T05:29:06;101471.09;;;5.53;89.53
75991;BME280;64673;52.276;10.560;2023-04-08T05:31:31;101457.94;;;5.52;91.03
75991;BME280;64673;52.276;10.560;2023-04-08T05:33:57;101471.09;;;5.60;90.37
75991;BME280;64673;52.276;10.560;2023-04-08T05:36:22;101467.72;;;5.71;89.28
75991;BME280;64673;52.276;10.560;2023-04-08T05:38:47;101472.34;;;5.51;91.78
75991;BME280;64673;52.276;10.560;2023-04-08T05:41:13;101465.94;;;5.52;92.52
75991;BME280;64673;52.276;10.560;2023-04-08T05:43:38;101471.75;;;5.42;93.26
75991;BME280;64673;52.276;10.560;2023-04-08T05:46:08;101469.91;;;5.43;93.71
75991;BME280;64673;52.276;10.560;2023-04-08T05:48:34;101476.09;;;5.43;91.84
75991;BME280;64673;52.276;10.560;2023-04-08T05:50:59;101473.06;;;5.71;90.25
75991;BME280;64673;52.276;10.560;2023-04-08T05:53:25;101482.97;;;5.71;90.22
75991;BME280;64673;52.276;10.560;2023-04-08T05:55:50;101484.66;;;5.59;91.35
75991;BME280;64673;52.276;10.560;2023-04-08T05:58:15;101492.50;;;5.60;91.63
75991;BME280;64673;52.276;10.560;2023-04-08T06:00:41;101491.97;;;5.32;93.89
75991;BME280;64673;52.276;10.560;2023-04-08T06:03:06;101495.31;;;5.27;93.14
75991;BME280;64673;52.276;10.560;2023-04-08T06:05:32;101494.34;;;5.53;91.16
75991;BME280;64673;52.276;10.560;2023-04-08T06:07:57;101494.91;;;5.62;91.56
75991;BME280;64673;52.276;10.560;2023-04-08T06:10:22;101497.38;;;5.70;90.52
75991;BME280;64673;52.276;10.560;2023-04-08T06:12:48;101500.94;;;5.57;91.54
75991;BME280;64673;52.276;10.560;2023-04-08T06:15:13;101504.88;;;5.48;93.51
75991;BME280;64673;52.276;10.560;2023-04-08T06:17:38;101506.69;;;5.61;92.77
75991;BME280;64673;52.276;10.560;2023-04-08T06:20:05;101511.31;;;5.78;90.10
75991;BME280;64673;52.276;10.560;2023-04-08T06:22:30;101511.31;;;5.78;90.48
75991;BME280;64673;52.276;10.560;2023-04-08T06:24:56;101509.69;;;5.77;90.81
75991;BME280;64673;52.276;10.560;2023-04-08T06:27:21;101504.19;;;5.66;91.16
75991;BME280;64673;52.276;10.560;2023-04-08T06:29:47;101514.00;;;5.78;89.84
75991;BME280;64673;52.276;10.560;2023-04-08T06:32:12;101516.66;;;5.78;90.12
75991;BME280;64673;52.276;10.560;2023-04-08T06:34:38;101518.38;;;5.66;91.28
75991;BME280;64673;52.276;10.560;2023-04-08T06:37:03;101520.84;;;5.68;92.22
75991;BME280;64673;52.276;10.560;2023-04-08T06:39:30;101517.13;;;5.69;89.86
75991;BME280;64673;52.276;10.560;2023-04-08T06:41:55;101523.88;;;5.78;89.77
75991;BME280;64673;52.276;10.560;2023-04-08T06:44:22;101539.38;;;5.63;92.84
75991;BME280;64673;52.276;10.560;2023-04-08T06:46:47;101539.78;;;5.66;93.26
75991;BME280;64673;52.276;10.560;2023-04-08T06:49:13;101540.16;;;5.76;91.59
75991;BME280;64673;52.276;10.560;2023-04-08T06:51:38;101532.94;;;5.77;92.45
75991;BME280;64673;52.276;10.560;2023-04-08T06:54:03;101546.47;;;5.50;93.44
75991;BME280;64673;52.276;10.560;2023-04-08T06:56:28;101553.38;;;5.65;92.42
75991;BME280;64673;52.276;10.560;2023-04-08T06:58:54;101551.94;;;5.69;92.32
75991;BME280;64673;52.276;10.560;2023-04-08T07:01:19;101552.56;;;5.64;91.81
75991;BME280;64673;52.276;10.560;2023-04-08T07:03:45;101551.94;;;5.62;94.48
75991;BME280;64673;52.276;10.560;2023-04-08T07:06:10;101553.78;;;5.62;93.40
75991;BME280;64673;52.276;10.560;2023-04-08T07:08:35;101546.78;;;5.67;92.97
75991;BME280;64673;52.276;10.560;2023-04-08T07:11:01;101554.19;;;5.72;92.90
75991;BME280;64673;52.276;10.560;2023-04-08T07:13:27;101550.91;;;5.63;93.20
75991;BME280;64673;52.276;10.560;2023-04-08T07:15:53;101545.69;;;5.81;92.29
75991;BME280;64673;52.276;10.560;2023-04-08T07:18:18;101543.19;;;5.93;91.10
75991;BME280;64673;52.276;10.560;2023-04-08T07:20:50;101545.25;;;5.84;91.93
75991;BME280;64673;52.276;10.560;2023-04-08T07:23:15;101549.94;;;6.02;91.24
75991;BME280;64673;52.276;10.560;2023-04-08T07:25:41;101556.19;;;5.90;91.75
75991;BME280;64673;52.276;10.560;2023-04-08T07:28:06;101558.06;;;5.82;93.11
75991;BME280;64673;52.276;10.560;2023-04-08T07:30:31;101565.03;;;5.83;91.61
75991;BME280;64673;52.276;10.560;2023-04-08T07:32:57;101560.28;;;5.85;92.18
75991;BME280;64673;52.276;10.560;2023-04-08T07:35:23;101559.56;;;6.10;89.86
75991;BME280;64673;52.276;10.560;2023-04-08T07:37:49;101572.09;;;6.16;90.09
75991;BME280;64673;52.276;10.560;2023-04-08T07:40:15;101580.72;;;6.18;89.51
75991;BME280;64673;52.276;10.560;2023-04-08T07:42:41;101574.19;;;6.14;90.00
75991;BME280;64673;52.276;10.560;2023-04-08T07:45:07;101573.72;;;6.23;89.13
75991;BME280;64673;52.276;10.560;2023-04-08T07:47:32;101580.13;;;6.16;89.45
75991;BME280;64673;52.276;10.560;2023-04-08T07:49:57;101570.78;;;6.25;89.25
75991;BME280;64673;52.276;10.560;2023-04-08T07:52:23;101571.41;;;6.27;90.18
75991;BME280;64673;52.276;10.560;2023-04-08T07:54:48;101579.53;;;6.14;92.45
75991;BME280;64673;52.276;10.560;2023-04-08T07:57:13;101583.81;;;5.77;93.52
75991;BME280;64673;52.276;10.560;2023-04-08T07:59:39;101588.09;;;5.84;94.04
75991;BME280;64673;52.276;10.560;2023-04-08T08:02:04;101594.03;;;6.00;92.66
75991;BME280;64673;52.276;10.560;2023-04-08T08:04:30;101591.84;;;6.21;90.77
75991;BME280;64673;52.276;10.560;2023-04-08T08:06:55;101597.41;;;6.20;91.13
75991;BME280;64673;52.276;10.560;2023-04-08T08:09:20;101583.34;;;6.31;90.36
75991;BME280;64673;52.276;10.560;2023-04-08T08:11:46;101594.59;;;6.40;88.75
75991;BME280;64673;52.276;10.560;2023-04-08T08:14:11;101605.53;;;6.38;89.88
75991;BME280;64673;52.276;10.560;2023-04-08T08:16:38;101607.50;;;6.18;90.94
75991;BME280;64673;52.276;10.560;2023-04-08T08:19:03;101605.25;;;6.15;90.91
75991;BME280;64673;52.276;10.560;2023-04-08T08:21:31;101608.91;;;5.89;92.35
75991;BME280;64673;52.276;10.560;2023-04-08T08:23:56;101613.34;;;6.08;90.67
75991;BME280;64673;52.276;10.560;2023-04-08T08:26:24;101606.88;;;6.22;89.22
75991;BME280;64673;52.276;10.560;2023-04-08T08:28:49;101608.69;;;6.29;89.05
75991;BME280;64673;52.276;10.560;2023-04-08T08:31:14;101606.28;;;6.20;91.19
75991;BME280;64673;52.276;10.560;2023-04-08T08:33:40;101614.78;;;6.42;89.78
75991;BME280;64673;52.276;10.560;2023-04-08T08:36:05;101624.41;;;6.18;91.36
75991;BME280;64673;52.276;10.560;2023-04-08T08:38:32;101620.56;;;6.39;89.57
75991;BME280;64673;52.276;10.560;2023-04-08T08:40:58;101618.16;;;6.31;90.45
75991;BME280;64673;52.276;10.560;2023-04-08T08:43:25;101630.59;;;6.19;89.80
75991;BME280;64673;52.276;10.560;2023-04-08T08:45:51;101624.00;;;6.15;91.03
75991;BME280;64673;52.276;10.560;2023-04-08T08:48:17;101620.59;;;6.01;91.28
75991;BME280;64673;52.276;10.560;2023-04-08T08:50:42;101630.59;;;6.19;92.07
75991;BME280;64673;52.276;10.560;2023-04-08T08:53:08;101620.63;;;6.33;90.71
75991;BME280;64673;52.276;10.560;2023-04-08T08:55:33;101625.22;;;6.19;92.23
75991;BME280;64673;52.276;10.560;2023-04-08T08:58:00;101623.31;;;6.26;91.11
75991;BME280;64673;52.276;10.560;2023-04-08T09:00:36;101623.81;;;6.48;88.62
75991;BME280;64673;52.276;10.560;2023-04-08T09:03:15;101625.16;;;6.32;89.02
75991;BME280;64673;52.276;10.560;2023-04-08T09:11:09;101637.81;;;6.56;89.75
75991;BME280;64673;52.276;10.560;2023-04-08T09:13:35;101636.22;;;6.42;89.93
75991;BME280;64673;52.276;10.560;2023-04-08T09:18:27;101649.75;;;6.22;91.67
75991;BME280;64673;52.276;10.560;2023-04-08T09:20:53;101650.06;;;6.39;89.39
75991;BME280;64673;52.276;10.560;2023-04-08T09:23:19;101665.97;;;6.34;91.71
75991;BME280;64673;52.276;10.560;2023-04-08T09:25:44;101666.19;;;6.33;90.58
75991;BME280;64673;52.276;10.560;2023-04-08T09:28:19;101668.81;;;6.39;90.14
75991;BME280;64673;52.276;10.560;2023-04-08T09:30:47;101670.91;;;6.31;91.74
75991;BME280;64673;52.276;10.560;2023-04-08T09:33:12;101664.34;;;6.27;91.76
75991;BME280;64673;52.276;10.560;2023-04-08T09:35:38;101668.69;;;6.21;92.56
75991;BME280;64673;52.276;10.560;2023-04-08T09:38:03;101674.88;;;6.21;91.67
75991;BME280;64673;52.276;10.560;2023-04-08T09:40:33;101677.56;;;6.15;92.96
75991;BME280;64673;52.276;10.560;2023-04-08T09:43:03;101674.69;;;6.23;92.71
75991;BME280;64673;52.276;10.560;2023-04-08T09:45:30;101676.16;;;6.50;89.91
75991;BME280;64673;52.276;10.560;2023-04-08T09:48:09;101670.03;;;6.43;91.16
75991;BME280;64673;52.276;10.560;2023-04-08T09:50:42;101668.91;;;6.57;89.38
75991;BME280;64673;52.276;10.560;2023-04-08T09:53:19;101664.06;;;6.73;88.14
75991;BME280;64673;52.276;10.560;2023-04-08T09:55:52;101657.13;;;6.58;88.82
75991;BME280;64673;52.276;10.560;2023-04-08T09:58:33;101666.31;;;6.44;90.72
75991;BME280;64673;52.276;10.560;2023-04-08T10:01:04;101665.91;;;6.41;90.93
75991;BME280;64673;52.276;10.560;2023-04-08T10:03:37;101662.16;;;6.48;91.00
75991;BME280;64673;52.276;10.560;2023-04-08T10:06:04;101674.78;;;6.73;89.19
75991;BME280;64673;52.276;10.560;2023-04-08T10:08:33;101677.25;;;6.74;89.00
75991;BME280;64673;52.276;10.560;2023-04-08T10:10:59;101678.16;;;6.61;90.49
75991;BME280;64673;52.276;10.560;2023-04-08T10:13:26;101692.66;;;6.47;90.24
75991;BME280;64673;52.276;10.560;2023-04-08T10:18:41;101688.97;;;6.80;88.29
75991;BME280;64673;52.276;10.560;2023-04-08T10:21:40;101698.78;;;6.61;90.62
75991;BME280;64673;52.276;10.560;2023-04-08T10:24:12;101690.25;;;6.71;88.66
75991;BME280;64673;52.276;10.560;2023-04-08T10:26:40;101702.22;;;6.75;89.28
75991;BME280;64673;52.276;10.560;2023-04-08T10:31:44;101691.56;;;6.93;87.51
75991;BME280;64673;52.276;10.560;2023-04-08T10:34:21;101700.28;;;6.82;89.05
75991;BME280;64673;52.276;10.560;2023-04-08T10:36:49;101704.47;;;6.78;89.37
75991;BME280;64673;52.276;10.560;2023-04-08T10:39:15;101706.75;;;6.74;88.54
75991;BME280;64673;52.276;10.560;2023-04-08T10:41:48;101696.03;;;6.74;89.10
75991;BME280;64673;52.276;10.560;2023-04-08T10:44:18;101702.91;;;6.64;90.70
75991;BME280;64673;52.276;10.560;2023-04-08T10:46:44;101708.69;;;6.60;90.67
75991;BME280;64673;52.276;10.560;2023-04-08T10:49:11;101702.56;;;6.85;89.43
75991;BME280;64673;52.276;10.560;2023-04-08T10:51:37;101707.16;;;6.78;90.22
75991;BME280;64673;52.276;10.560;2023-04-08T10:54:10;101705.03;;;7.11;87.39
75991;BME280;64673;52.276;10.560;2023-04-08T10:56:46;101707.31;;;6.83;91.27
75991;BME280;64673;52.276;10.560;2023-04-08T10:59:14;101706.13;;;6.72;91.67
75991;BME280;64673;52.276;10.560;2023-04-08T11:01:44;101702.47;;;6.67;91.86
75991;BME280;64673;52.276;10.560;2023-04-08T11:04:16;101701.19;;;6.76;92.15
75991;BME280;64673;52.276;10.560;2023-04-08T11:06:48;101700.63;;;6.92;92.93
75991;BME280;64673;52.276;10.560;2023-04-08T11:09:14;101708.88;;;6.97;91.51
75991;BME280;64673;52.276;10.560;2023-04-08T11:11:41;101707.94;;;6.78;92.08
75991;BME280;64673;52.276;10.560;2023-04-08T11:14:07;101711.09;;;7.00;89.46
75991;BME280;64673;52.276;10.560;2023-04-08T11:16:33;101711.41;;;6.85;90.46
75991;BME280;64673;52.276;10.560;2023-04-08T11:19:01;101709.63;;;7.04;89.02
75991;BME280;64673;52.276;10.560;2023-04-08T11:21:27;101705.63;;;7.13;88.02
75991;BME280;64673;52.276;10.560;2023-04-08T11:23:53;101709.69;;;7.22;87.44
75991;BME280;64673;52.276;10.560;2023-04-08T11:26:18;101709.66;;;7.29;87.96
75991;BME280;64673;52.276;10.560;2023-04-08T11:28:45;101711.41;;;7.17;88.33
75991;BME280;64673;52.276;10.560;2023-04-08T11:31:13;101708.44;;;7.25;87.48
75991;BME280;64673;52.276;10.560;2023-04-08T11:33:44;101706.78;;;7.24;87.34
75991;BME280;64673;52.276;10.560;2023-04-08T11:36:11;101706.56;;;7.25;87.03
75991;BME280;64673;52.276;10.560;2023-04-08T11:38:38;101707.66;;;7.43;87.58
75991;BME280;64673;52.276;10.560;2023-04-08T11:41:05;101703.94;;;7.44;86.43
75991;BME280;64673;52.276;10.560;2023-04-08T11:43:30;101698.00;;;7.60;86.07
75991;BME280;64673;52.276;10.560;2023-04-08T11:45:56;101699.84;;;7.41;86.50
75991;BME280;64673;52.276;10.560;2023-04-08T11:48:21;101699.69;;;7.54;86.17
75991;BME280;64673;52.276;10.560;2023-04-08T11:51:01;101700.78;;;7.71;85.76
75991;BME280;64673;52.276;10.560;2023-04-08T11:53:27;101701.81;;;7.89;84.79
75991;BME280;64673;52.276;10.560;2023-04-08T11:55:53;101704.06;;;7.92;85.45
75991;BME280;64673;52.276;10.560;2023-04-08T11:58:18;101705.44;;;7.40;87.16
75991;BME280;64673;52.276;10.560;2023-04-08T12:00:43;101703.59;;;7.58;87.40
75991;BME280;64673;52.276;10.560;2023-04-08T12:03:10;101703.88;;;7.50;86.60
75991;BME280;64673;52.276;10.560;2023-04-08T12:05:35;101702.22;;;7.49;86.66
75991;BME280;64673;52.276;10.560;2023-04-08T12:08:01;101706.66;;;7.80;87.00
75991;BME280;64673;52.276;10.560;2023-04-08T12:10:26;101708.53;;;7.80;85.78
75991;BME280;64673;52.276;10.560;2023-04-08T12:12:52;101715.78;;;7.79;85.83
75991;BME280;64673;52.276;10.560;2023-04-08T12:15:17;101715.56;;;7.81;87.35
75991;BME280;64673;52.276;10.560;2023-04-08T12:17:43;101719.28;;;7.80;85.76
75991;BME280;64673;52.276;10.560;2023-04-08T12:20:09;101716.38;;;7.81;86.89
75991;BME280;64673;52.276;10.560;2023-04-08T12:22:35;101728.44;;;7.72;87.01
75991;BME280;64673;52.276;10.560;2023-04-08T12:25:01;101726.81;;;7.71;86.94
75991;BME280;64673;52.276;10.560;2023-04-08T12:27:28;101723.66;;;7.06;88.56
75991;BME280;64673;52.276;10.560;2023-04-08T12:29:53;101723.91;;;7.23;89.72
75991;BME280;64673;52.276;10.560;2023-04-08T12:32:19;101728.84;;;7.26;87.72
75991;BME280;64673;52.276;10.560;2023-04-08T12:34:45;101729.75;;;7.63;86.54
75991;BME280;64673;52.276;10.560;2023-04-08T12:37:11;101725.59;;;7.67;86.22
75991;BME280;64673;52.276;10.560;2023-04-08T12:39:37;101721.25;;;7.66;86.34
75991;BME280;64673;52.276;10.560;2023-04-08T12:42:02;101715.88;;;7.48;87.38
75991;BME280;64673;52.276;10.560;2023-04-08T12:44:28;101717.19;;;7.82;86.08
75991;BME280;64673;52.276;10.560;2023-04-08T12:46:54;101713.06;;;7.97;84.35
75991;BME280;64673;52.276;10.560;2023-04-08T12:49:19;101712.78;;;7.69;86.14
75991;BME280;64673;52.276;10.560;2023-04-08T12:51:45;101714.22;;;7.90;85.63
75991;BME280;64673;52.276;10.560;2023-04-08T12:54:10;101714.59;;;7.93;84.77
75991;BME280;64673;52.276;10.560;2023-04-08T12:56:36;101712.19;;;7.85;85.45
75991;BME280;64673;52.276;10.560;2023-04-08T12:59:03;101712.56;;;7.89;84.78
75991;BME280;64673;52.276;10.560;2023-04-08T13:01:28;101707.53;;;7.56;85.76
75991;BME280;64673;52.276;10.560;2023-04-08T13:03:55;101721.25;;;7.66;86.86